Time,TemperatureF,DewpointF,PressureIn,WindDirection,WindDirectionDegrees,WindSpeedMPH,WindSpeedGustMPH,Humidity,HourlyPrecipIn,Conditions,Clouds,dailyrainin,SoftwareType,DateUTC
2013-07-23 00:04:00,75.7,74.0,29.95,NNW,340,1.0,3.0,94,0.00,,,0.00,weatherlink.com 1.10,2013-07-23 04:04:00,
2013-07-23 00:19:00,75.6,74.0,29.95,East,90,0.0,2.0,93,0.00,,,0.00,weatherlink.com 1.10,2013-07-23 04:19:00,
2013-07-23 00:34:00,75.6,74.0,29.95,North,11,0.0,2.0,93,0.00,,,0.00,weatherlink.com 1.10,2013-07-23 04:34:00,
2013-07-23 00:49:00,75.7,74.0,29.95,ESE,102,0.0,4.0,93,0.00,,,0.00,weatherlink.com 1.10,2013-07-23 04:49:00,
2013-07-23 01:04:00,75.5,73.0,29.95,ENE,66,1.0,3.0,93,0.00,,,0.00,weatherlink.com 1.10,2013-07-23 05:04:00,
2013-07-23 01:19:00,75.5,73.0,29.94,North,350,0.0,3.0,93,0.00,,,0.00,weatherlink.com 1.10,2013-07-23 05:19:00,
2013-07-23 01:34:00,75.4,73.0,29.94,East,85,0.0,3.0,93,0.00,,,0.00,weatherlink.com 1.10,2013-07-23 05:34:00,
2013-07-23 01:49:00,75.1,73.0,29.93,NE,54,0.0,4.0,94,0.00,,,0.00,weatherlink.com 1.10,2013-07-23 05:49:00,
2013-07-23 02:04:00,74.8,73.0,29.93,NW,325,0.0,3.0,94,0.00,,,0.00,weatherlink.com 1.10,2013-07-23 06:04:00,
2013-07-23 02:19:00,74.6,73.0,29.93,South,173,0.0,3.0,95,0.00,,,0.00,weatherlink.com 1.10,2013-07-23 06:19:00,
2013-07-23 02:34:00,74.5,73.0,29.93,ESE,115,0.0,1.0,95,0.00,,,0.00,weatherlink.com 1.10,2013-07-23 06:34:00,
2013-07-23 02:49:00,74.4,73.0,29.93,ESE,107,1.0,3.0,95,0.00,,,0.00,weatherlink.com 1.10,2013-07-23 06:49:00,
2013-07-23 03:04:00,74.4,73.0,29.93,East,94,0.0,2.0,96,0.00,,,0.00,weatherlink.com 1.10,2013-07-23 07:04:00,
2013-07-23 03:34:00,74.8,73.0,29.92,ESE,104,2.0,2.0,95,0.00,,,0.00,weatherlink.com 1.10,2013-07-23 07:34:00,
2013-07-23 03:49:00,74.7,73.0,29.92,SSE,159,0.0,1.0,95,0.00,,,0.00,weatherlink.com 1.10,2013-07-23 07:49:00,
2013-07-23 04:04:00,74.7,73.0,29.92,East,94,0.0,2.0,94,0.00,,,0.00,weatherlink.com 1.10,2013-07-23 08:04:00,
2013-07-23 04:19:00,74.4,73.0,29.92,SSE,151,0.0,2.0,95,0.00,,,0.00,weatherlink.com 1.10,2013-07-23 08:19:00,
2013-07-23 04:34:00,74.2,73.0,29.91,ESE,123,0.0,1.0,95,0.00,,,0.00,weatherlink.com 1.10,2013-07-23 08:34:00,
2013-07-23 04:49:00,74.0,73.0,29.92,ENE,75,0.0,1.0,95,0.00,,,0.00,weatherlink.com 1.10,2013-07-23 08:49:00,
2013-07-23 05:04:00,73.9,73.0,29.92,WSW,256,0.0,1.0,96,0.00,,,0.00,weatherlink.com 1.10,2013-07-23 09:04:00,
2013-07-23 05:19:00,74.0,73.0,29.92,East,93,0.0,1.0,95,0.00,,,0.00,weatherlink.com 1.10,2013-07-23 09:19:00,
2013-07-23 05:34:00,73.8,73.0,29.92,ENE,73,0.0,1.0,96,0.00,,,0.00,weatherlink.com 1.10,2013-07-23 09:34:00,
2013-07-23 05:49:00,73.7,73.0,29.93,ENE,73,0.0,1.0,96,0.00,,,0.00,weatherlink.com 1.10,2013-07-23 09:49:00,
2013-07-23 06:04:00,73.9,73.0,29.93,ENE,73,0.0,1.0,96,0.00,,,0.00,weatherlink.com 1.10,2013-07-23 10:04:00,
2013-07-23 06:19:00,74.3,73.0,29.93,ENE,73,0.0,1.0,95,0.00,,,0.00,weatherlink.com 1.10,2013-07-23 10:19:00,
2013-07-23 06:34:00,74.5,73.0,29.93,SSW,203,2.0,2.0,94,0.00,,,0.00,weatherlink.com 1.10,2013-07-23 10:34:00,
2013-07-23 06:49:00,74.6,73.0,29.93,SSE,167,0.0,4.0,94,0.00,,,0.00,weatherlink.com 1.10,2013-07-23 10:49:00,
2013-07-23 07:04:00,74.8,73.0,29.94,West,264,0.0,2.0,93,0.00,,,0.00,weatherlink.com 1.10,2013-07-23 11:04:00,
2013-07-23 07:19:00,74.9,73.0,29.93,ENE,76,1.0,1.0,93,0.00,,,0.00,weatherlink.com 1.10,2013-07-23 11:19:00,
2013-07-23 07:34:00,75.1,73.0,29.93,NNE,33,0.0,5.0,93,0.00,,,0.00,weatherlink.com 1.10,2013-07-23 11:34:00,
2013-07-23 07:49:00,74.9,73.0,29.93,NE,35,0.0,4.0,93,0.00,,,0.00,weatherlink.com 1.10,2013-07-23 11:49:00,
2013-07-23 08:04:00,75.7,73.0,29.93,North,355,2.0,5.0,92,0.00,,,0.00,weatherlink.com 1.10,2013-07-23 12:04:00,
2013-07-23 08:19:00,75.8,73.0,29.94,East,80,1.0,3.0,91,0.00,,,0.00,weatherlink.com 1.10,2013-07-23 12:19:00,
2013-07-23 08:34:00,75.9,73.0,29.94,WNW,297,0.0,5.0,91,0.00,,,0.00,weatherlink.com 1.10,2013-07-23 12:34:00,
2013-07-23 08:49:00,76.2,73.0,29.93,WNW,283,1.0,3.0,90,0.00,,,0.00,weatherlink.com 1.10,2013-07-23 12:49:00,
2013-07-23 09:04:00,77.0,73.0,29.93,WNW,298,3.0,5.0,88,0.00,,,0.00,weatherlink.com 1.10,2013-07-23 13:04:00,
2013-07-23 09:19:00,77.3,73.0,29.93,NNW,335,1.0,4.0,87,0.00,,,0.00,weatherlink.com 1.10,2013-07-23 13:19:00,
2013-07-23 09:34:00,77.8,74.0,29.93,NNW,328,1.0,4.0,87,0.00,,,0.00,weatherlink.com 1.10,2013-07-23 13:34:00,
2013-07-23 09:50:00,78.5,74.0,29.93,WNW,301,1.0,4.0,86,0.00,,,0.00,weatherlink.com 1.10,2013-07-23 13:50:00,
2013-07-23 10:05:00,79.5,73.0,29.93,North,350,0.0,4.0,81,0.00,,,0.00,weatherlink.com 1.10,2013-07-23 14:05:00,
2013-07-23 10:20:00,79.6,74.0,29.93,NNW,344,1.0,3.0,82,0.00,,,0.00,weatherlink.com 1.10,2013-07-23 14:20:00,
2013-07-23 10:35:00,81.2,74.0,29.93,ENE,76,1.0,5.0,79,0.00,,,0.00,weatherlink.com 1.10,2013-07-23 14:35:00,
2013-07-23 10:50:00,82.3,74.0,29.93,NW,307,4.0,7.0,77,0.00,,,0.00,weatherlink.com 1.10,2013-07-23 14:50:00,
2013-07-23 11:05:00,83.7,75.0,29.93,North,360,2.0,6.0,75,0.00,,,0.00,weatherlink.com 1.10,2013-07-23 15:05:00,
2013-07-23 11:20:00,83.8,75.0,29.93,WNW,293,1.0,7.0,74,0.00,,,0.00,weatherlink.com 1.10,2013-07-23 15:20:00,
2013-07-23 11:35:00,84.7,75.0,29.93,West,269,1.0,5.0,72,0.00,,,0.00,weatherlink.com 1.10,2013-07-23 15:35:00,
2013-07-23 11:50:00,84.1,75.0,29.92,WNW,302,2.0,6.0,74,0.00,,,0.00,weatherlink.com 1.10,2013-07-23 15:50:00,
2013-07-23 12:05:00,85.6,75.0,29.92,WNW,300,1.0,5.0,70,0.00,,,0.00,weatherlink.com 1.10,2013-07-23 16:05:00,
2013-07-23 12:20:00,86.1,76.0,29.92,West,266,5.0,7.0,72,0.00,,,0.00,weatherlink.com 1.10,2013-07-23 16:20:00,
2013-07-23 12:35:00,85.6,76.0,29.91,WNW,298,2.0,5.0,72,0.00,,,0.00,weatherlink.com 1.10,2013-07-23 16:35:00,
2013-07-23 12:50:00,87.1,76.0,29.91,West,266,1.0,9.0,70,0.00,,,0.00,weatherlink.com 1.10,2013-07-23 16:50:00,
2013-07-23 13:05:00,87.5,75.0,29.90,SE,126,1.0,4.0,66,0.00,,,0.00,weatherlink.com 1.10,2013-07-23 17:05:00,
2013-07-23 13:20:00,87.6,75.0,29.90,NW,326,1.0,5.0,67,0.00,,,0.00,weatherlink.com 1.10,2013-07-23 17:20:00,
2013-07-23 13:35:00,88.0,75.0,29.89,NW,321,1.0,8.0,66,0.00,,,0.00,weatherlink.com 1.10,2013-07-23 17:35:00,
2013-07-23 13:50:00,87.7,74.0,29.89,West,281,2.0,8.0,64,0.00,,,0.00,weatherlink.com 1.10,2013-07-23 17:50:00,
2013-07-23 14:05:00,88.0,75.0,29.88,West,271,1.0,6.0,66,0.00,,,0.00,weatherlink.com 1.10,2013-07-23 18:05:00,
2013-07-23 14:20:00,88.8,75.0,29.88,NNE,26,1.0,6.0,64,0.00,,,0.00,weatherlink.com 1.10,2013-07-23 18:20:00,
2013-07-23 14:35:00,88.5,75.0,29.87,NE,47,0.0,8.0,65,0.00,,,0.00,weatherlink.com 1.10,2013-07-23 18:35:00,
2013-07-23 14:50:00,88.9,75.0,29.86,North,355,1.0,7.0,63,0.00,,,0.00,weatherlink.com 1.10,2013-07-23 18:50:00,
2013-07-23 15:05:00,88.3,76.0,29.86,WNW,302,1.0,4.0,67,0.00,,,0.00,weatherlink.com 1.10,2013-07-23 19:05:00,
2013-07-23 15:20:00,88.3,75.0,29.85,WNW,289,2.0,7.0,64,0.00,,,0.00,weatherlink.com 1.10,2013-07-23 19:20:00,
2013-07-23 15:35:00,88.7,77.0,29.85,WNW,283,1.0,5.0,68,0.00,,,0.00,weatherlink.com 1.10,2013-07-23 19:35:00,
2013-07-23 15:50:00,88.0,75.0,29.85,NNE,16,2.0,5.0,66,0.00,,,0.00,weatherlink.com 1.10,2013-07-23 19:50:00,
2013-07-23 16:05:00,88.6,75.0,29.84,NW,310,1.0,4.0,65,0.00,,,0.00,weatherlink.com 1.10,2013-07-23 20:05:00,
2013-07-23 16:20:00,87.3,75.0,29.84,West,277,0.0,4.0,66,0.00,,,0.00,weatherlink.com 1.10,2013-07-23 20:20:00,
2013-07-23 16:35:00,87.4,74.0,29.84,WNW,290,1.0,4.0,65,0.00,,,0.00,weatherlink.com 1.10,2013-07-23 20:35:00,
2013-07-23 16:50:00,88.0,74.0,29.83,WNW,301,2.0,6.0,64,0.00,,,0.00,weatherlink.com 1.10,2013-07-23 20:50:00,
2013-07-23 17:06:00,87.2,75.0,29.83,NNE,15,1.0,7.0,66,0.00,,,0.00,weatherlink.com 1.10,2013-07-23 21:06:00,
2013-07-23 17:21:00,87.4,76.0,29.82,West,276,1.0,3.0,69,0.00,,,0.00,weatherlink.com 1.10,2013-07-23 21:21:00,
2013-07-23 17:51:00,86.5,76.0,29.82,North,355,1.0,3.0,70,0.00,,,0.00,weatherlink.com 1.10,2013-07-23 21:51:00,
2013-07-23 18:06:00,86.7,76.0,29.82,NNW,333,1.0,4.0,71,0.00,,,0.00,weatherlink.com 1.10,2013-07-23 22:06:00,
2013-07-23 18:21:00,86.7,76.0,29.82,SW,219,1.0,3.0,71,0.00,,,0.00,weatherlink.com 1.10,2013-07-23 22:21:00,
2013-07-23 18:36:00,86.7,77.0,29.82,NE,44,0.0,2.0,72,0.00,,,0.00,weatherlink.com 1.10,2013-07-23 22:36:00,
2013-07-23 18:51:00,86.7,77.0,29.82,WNW,286,2.0,2.0,72,0.00,,,0.00,weatherlink.com 1.10,2013-07-23 22:51:00,
2013-07-23 19:06:00,85.7,77.0,29.82,SSE,167,0.0,2.0,75,0.00,,,0.00,weatherlink.com 1.10,2013-07-23 23:06:00,
2013-07-23 19:21:00,85.1,77.0,29.82,East,79,0.0,2.0,76,0.00,,,0.00,weatherlink.com 1.10,2013-07-23 23:21:00,
2013-07-23 19:36:00,84.3,77.0,29.82,East,79,0.0,1.0,78,0.00,,,0.00,weatherlink.com 1.10,2013-07-23 23:36:00,
2013-07-23 19:51:00,83.6,77.0,29.82,East,79,0.0,1.0,80,0.00,,,0.00,weatherlink.com 1.10,2013-07-23 23:51:00,
2013-07-23 20:06:00,82.9,77.0,29.83,East,80,0.0,1.0,81,0.00,,,0.00,weatherlink.com 1.10,2013-07-24 00:06:00,
2013-07-23 20:21:00,82.1,77.0,29.82,East,80,0.0,1.0,83,0.00,,,0.00,weatherlink.com 1.10,2013-07-24 00:21:00,
2013-07-23 20:36:00,81.5,76.0,29.83,East,80,0.0,1.0,84,0.00,,,0.00,weatherlink.com 1.10,2013-07-24 00:36:00,
2013-07-23 21:06:00,80.0,76.0,29.84,East,80,0.0,1.0,88,0.00,,,0.00,weatherlink.com 1.10,2013-07-24 01:06:00,
2013-07-23 21:21:00,79.4,76.0,29.85,East,80,0.0,1.0,89,0.00,,,0.00,weatherlink.com 1.10,2013-07-24 01:21:00,
2013-07-23 22:06:00,78.8,76.0,29.84,East,80,0.0,0.0,91,0.00,,,0.00,weatherlink.com 1.10,2013-07-24 02:06:00,
2013-07-23 22:21:00,78.8,76.0,29.85,East,80,0.0,0.0,90,0.00,,,0.00,weatherlink.com 1.10,2013-07-24 02:21:00,
2013-07-23 22:36:00,78.3,76.0,29.84,East,80,0.0,0.0,92,0.00,,,0.00,weatherlink.com 1.10,2013-07-24 02:36:00,
2013-07-23 22:51:00,79.2,75.0,29.86,SE,126,0.0,6.0,86,0.00,,,0.00,weatherlink.com 1.10,2013-07-24 02:51:00,
2013-07-23 23:06:00,79.2,74.0,29.87,WNW,292,2.0,4.0,84,0.00,,,0.00,weatherlink.com 1.10,2013-07-24 03:06:00,
2013-07-23 23:21:00,76.6,74.0,29.87,WNW,292,1.0,2.0,91,0.00,,,0.00,weatherlink.com 1.10,2013-07-24 03:21:00,
2013-07-23 23:36:00,76.4,74.0,29.86,WNW,292,1.0,1.0,93,0.00,,,0.00,weatherlink.com 1.10,2013-07-24 03:36:00,
2013-07-23 23:51:00,75.9,74.0,29.86,WNW,292,0.0,1.0,94,0.00,,,0.00,weatherlink.com 1.10,2013-07-24 03:51:00,